sensor_id;sensor_type;location;lat;lon;timestamp;P1;durP1;ratioP1;P2;durP2;ratioP2
78053;SDS011;67726;45.636;11.752;2024-02-28T00:00:34;7.63;;;3.42;;
78053;SDS011;67726;45.636;11.752;2024-02-28T00:02:59;11.70;;;3.30;;
78053;SDS011;67726;45.636;11.752;2024-02-28T00:05:25;8.75;;;3.50;;
78053;SDS011;67726;45.636;11.752;2024-02-28T00:07:51;10.77;;;3.10;;
78053;SDS011;67726;45.636;11.752;2024-02-28T00:10:17;9.30;;;3.13;;
78053;SDS011;67726;45.636;11.752;2024-02-28T00:12:43;8.30;;;2.97;;
78053;SDS011;67726;45.636;11.752;2024-02-28T00:15:09;10.85;;;3.90;;
78053;SDS011;67726;45.636;11.752;2024-02-28T00:17:38;8.68;;;3.38;;
78053;SDS011;67726;45.636;11.752;2024-02-28T00:20:08;8.25;;;3.03;;
78053;SDS011;67726;45.636;11.752;2024-02-28T00:22:37;8.82;;;3.42;;
78053;SDS011;67726;45.636;11.752;2024-02-28T00:25:03;8.53;;;3.10;;
78053;SDS011;67726;45.636;11.752;2024-02-28T00:27:31;8.93;;;3.53;;
78053;SDS011;67726;45.636;11.752;2024-02-28T00:29:57;12.57;;;3.70;;
78053;SDS011;67726;45.636;11.752;2024-02-28T00:32:23;9.53;;;3.40;;
78053;SDS011;67726;45.636;11.752;2024-02-28T00:34:49;8.50;;;3.00;;
78053;SDS011;67726;45.636;11.752;2024-02-28T00:37:14;11.80;;;3.83;;
78053;SDS011;67726;45.636;11.752;2024-02-28T00:39:40;9.68;;;3.50;;
78053;SDS011;67726;45.636;11.752;2024-02-28T00:42:05;8.40;;;3.30;;
78053;SDS011;67726;45.636;11.752;2024-02-28T00:44:31;7.43;;;3.53;;
78053;SDS011;67726;45.636;11.752;2024-02-28T00:46:57;7.20;;;2.90;;
78053;SDS011;67726;45.636;11.752;2024-02-28T00:49:23;9.65;;;3.22;;
78053;SDS011;67726;45.636;11.752;2024-02-28T00:51:48;8.67;;;3.13;;
78053;SDS011;67726;45.636;11.752;2024-02-28T00:54:14;6.88;;;3.13;;
78053;SDS011;67726;45.636;11.752;2024-02-28T00:56:40;9.47;;;3.10;;
78053;SDS011;67726;45.636;11.752;2024-02-28T00:59:05;6.63;;;3.23;;
78053;SDS011;67726;45.636;11.752;2024-02-28T01:01:32;9.38;;;3.15;;
78053;SDS011;67726;45.636;11.752;2024-02-28T01:03:57;8.68;;;2.38;;
78053;SDS011;67726;45.636;11.752;2024-02-28T01:06:23;7.50;;;2.77;;
78053;SDS011;67726;45.636;11.752;2024-02-28T01:08:48;6.78;;;3.20;;
78053;SDS011;67726;45.636;11.752;2024-02-28T01:11:15;8.67;;;2.73;;
78053;SDS011;67726;45.636;11.752;2024-02-28T01:13:40;6.20;;;2.47;;
78053;SDS011;67726;45.636;11.752;2024-02-28T01:16:06;6.33;;;2.73;;
78053;SDS011;67726;45.636;11.752;2024-02-28T01:18:32;9.15;;;2.78;;
78053;SDS011;67726;45.636;11.752;2024-02-28T01:20:57;8.83;;;2.80;;
78053;SDS011;67726;45.636;11.752;2024-02-28T01:23:23;7.03;;;2.30;;
78053;SDS011;67726;45.636;11.752;2024-02-28T01:25:49;5.43;;;2.33;;
78053;SDS011;67726;45.636;11.752;2024-02-28T01:28:14;5.40;;;2.67;;
78053;SDS011;67726;45.636;11.752;2024-02-28T01:30:40;6.17;;;2.73;;
78053;SDS011;67726;45.636;11.752;2024-02-28T01:33:05;6.90;;;2.47;;
78053;SDS011;67726;45.636;11.752;2024-02-28T01:35:31;7.07;;;2.60;;
78053;SDS011;67726;45.636;11.752;2024-02-28T01:37:57;5.93;;;2.10;;
78053;SDS011;67726;45.636;11.752;2024-02-28T01:40:22;6.47;;;2.63;;
78053;SDS011;67726;45.636;11.752;2024-02-28T01:42:48;5.87;;;2.07;;
78053;SDS011;67726;45.636;11.752;2024-02-28T01:45:14;6.75;;;2.65;;
78053;SDS011;67726;45.636;11.752;2024-02-28T01:47:43;7.00;;;2.53;;
78053;SDS011;67726;45.636;11.752;2024-02-28T01:50:09;5.68;;;2.50;;
78053;SDS011;67726;45.636;11.752;2024-02-28T01:52:39;7.00;;;2.20;;
78053;SDS011;67726;45.636;11.752;2024-02-28T01:57:36;6.20;;;2.10;;
78053;SDS011;67726;45.636;11.752;2024-02-28T02:00:03;9.47;;;2.53;;
78053;SDS011;67726;45.636;11.752;2024-02-28T02:02:30;7.75;;;2.40;;
78053;SDS011;67726;45.636;11.752;2024-02-28T02:04:55;7.22;;;2.47;;
78053;SDS011;67726;45.636;11.752;2024-02-28T02:07:23;8.55;;;2.65;;
78053;SDS011;67726;45.636;11.752;2024-02-28T02:09:49;6.20;;;2.67;;
78053;SDS011;67726;45.636;11.752;2024-02-28T02:12:15;6.97;;;2.88;;
78053;SDS011;67726;45.636;11.752;2024-02-28T02:14:41;5.80;;;2.22;;
78053;SDS011;67726;45.636;11.752;2024-02-28T02:17:11;6.90;;;2.80;;
78053;SDS011;67726;45.636;11.752;2024-02-28T02:19:37;6.63;;;2.50;;
78053;SDS011;67726;45.636;11.752;2024-02-28T02:22:03;7.85;;;2.25;;
78053;SDS011;67726;45.636;11.752;2024-02-28T02:24:33;6.70;;;1.90;;
78053;SDS011;67726;45.636;11.752;2024-02-28T02:26:58;6.47;;;2.10;;
78053;SDS011;67726;45.636;11.752;2024-02-28T02:29:24;5.40;;;1.95;;
78053;SDS011;67726;45.636;11.752;2024-02-28T02:31:50;6.70;;;1.90;;
78053;SDS011;67726;45.636;11.752;2024-02-28T02:34:15;7.17;;;2.37;;
78053;SDS011;67726;45.636;11.752;2024-02-28T02:36:41;7.03;;;2.53;;
78053;SDS011;67726;45.636;11.752;2024-02-28T02:39:07;7.72;;;2.75;;
78053;SDS011;67726;45.636;11.752;2024-02-28T02:41:33;4.90;;;2.15;;
78053;SDS011;67726;45.636;11.752;2024-02-28T02:43:59;6.43;;;2.50;;
78053;SDS011;67726;45.636;11.752;2024-02-28T02:46:24;4.68;;;1.90;;
78053;SDS011;67726;45.636;11.752;2024-02-28T02:48:50;8.70;;;2.47;;
78053;SDS011;67726;45.636;11.752;2024-02-28T02:51:18;5.78;;;2.50;;
78053;SDS011;67726;45.636;11.752;2024-02-28T02:53:44;8.38;;;2.38;;
78053;SDS011;67726;45.636;11.752;2024-02-28T02:56:10;7.23;;;2.60;;
78053;SDS011;67726;45.636;11.752;2024-02-28T02:58:36;6.60;;;2.30;;
78053;SDS011;67726;45.636;11.752;2024-02-28T03:01:01;6.97;;;2.60;;
78053;SDS011;67726;45.636;11.752;2024-02-28T03:03:27;7.60;;;2.28;;
78053;SDS011;67726;45.636;11.752;2024-02-28T03:06:05;7.55;;;2.03;;
78053;SDS011;67726;45.636;11.752;2024-02-28T03:08:31;7.20;;;2.43;;
78053;SDS011;67726;45.636;11.752;2024-02-28T03:10:57;7.80;;;2.22;;
78053;SDS011;67726;45.636;11.752;2024-02-28T03:13:23;6.78;;;2.20;;
78053;SDS011;67726;45.636;11.752;2024-02-28T03:15:49;7.87;;;2.20;;
78053;SDS011;67726;45.636;11.752;2024-02-28T03:18:14;11.27;;;2.40;;
78053;SDS011;67726;45.636;11.752;2024-02-28T03:20:40;5.83;;;2.10;;
78053;SDS011;67726;45.636;11.752;2024-02-28T03:23:06;7.88;;;2.20;;
78053;SDS011;67726;45.636;11.752;2024-02-28T03:25:32;7.40;;;2.73;;
78053;SDS011;67726;45.636;11.752;2024-02-28T03:27:58;7.18;;;2.13;;
78053;SDS011;67726;45.636;11.752;2024-02-28T03:30:25;10.05;;;2.20;;
78053;SDS011;67726;45.636;11.752;2024-02-28T03:32:50;7.57;;;2.50;;
78053;SDS011;67726;45.636;11.752;2024-02-28T03:35:16;7.67;;;1.93;;
78053;SDS011;67726;45.636;11.752;2024-02-28T03:37:42;6.50;;;2.30;;
78053;SDS011;67726;45.636;11.752;2024-02-28T03:40:07;7.47;;;3.07;;
78053;SDS011;67726;45.636;11.752;2024-02-28T03:50:54;13.75;;;5.95;;
78053;SDS011;67726;45.636;11.752;2024-02-28T03:53:19;13.80;;;5.88;;
78053;SDS011;67726;45.636;11.752;2024-02-28T03:55:45;10.40;;;4.97;;
78053;SDS011;67726;45.636;11.752;2024-02-28T03:58:11;9.00;;;4.05;;
78053;SDS011;67726;45.636;11.752;2024-02-28T04:00:37;8.00;;;4.15;;
78053;SDS011;67726;45.636;11.752;2024-02-28T04:03:04;8.13;;;3.43;;
78053;SDS011;67726;45.636;11.752;2024-02-28T04:05:30;9.38;;;3.50;;
78053;SDS011;67726;45.636;11.752;2024-02-28T04:07:56;6.57;;;3.13;;
78053;SDS011;67726;45.636;11.752;2024-02-28T04:10:22;5.13;;;2.58;;
78053;SDS011;67726;45.636;11.752;2024-02-28T04:12:48;5.97;;;2.37;;
78053;SDS011;67726;45.636;11.752;2024-02-28T04:15:13;7.25;;;2.30;;
78053;SDS011;67726;45.636;11.752;2024-02-28T04:17:39;6.63;;;2.10;;
78053;SDS011;67726;45.636;11.752;2024-02-28T04:22:35;5.93;;;2.25;;
78053;SDS011;67726;45.636;11.752;2024-02-28T04:25:01;6.40;;;1.88;;
78053;SDS011;67726;45.636;11.752;2024-02-28T04:27:27;6.27;;;2.43;;
78053;SDS011;67726;45.636;11.752;2024-02-28T04:29:52;8.55;;;3.13;;
78053;SDS011;67726;45.636;11.752;2024-02-28T04:32:18;9.67;;;2.63;;
78053;SDS011;67726;45.636;11.752;2024-02-28T04:34:44;8.73;;;2.77;;
78053;SDS011;67726;45.636;11.752;2024-02-28T04:37:09;5.30;;;2.20;;
78053;SDS011;67726;45.636;11.752;2024-02-28T04:39:36;7.15;;;2.60;;
78053;SDS011;67726;45.636;11.752;2024-02-28T04:42:01;8.20;;;2.57;;
78053;SDS011;67726;45.636;11.752;2024-02-28T04:44:27;7.68;;;2.90;;
78053;SDS011;67726;45.636;11.752;2024-02-28T04:46:53;8.37;;;3.30;;
78053;SDS011;67726;45.636;11.752;2024-02-28T04:49:18;5.32;;;2.50;;
78053;SDS011;67726;45.636;11.752;2024-02-28T04:51:45;7.57;;;2.50;;
78053;SDS011;67726;45.636;11.752;2024-02-28T04:54:10;6.78;;;3.13;;
78053;SDS011;67726;45.636;11.752;2024-02-28T04:56:39;6.43;;;3.00;;
78053;SDS011;67726;45.636;11.752;2024-02-28T04:59:06;8.13;;;2.85;;
78053;SDS011;67726;45.636;11.752;2024-02-28T05:01:32;6.22;;;2.30;;
78053;SDS011;67726;45.636;11.752;2024-02-28T05:03:58;8.15;;;2.90;;
78053;SDS011;67726;45.636;11.752;2024-02-28T05:06:24;5.27;;;2.30;;
78053;SDS011;67726;45.636;11.752;2024-02-28T05:08:50;9.13;;;2.50;;
78053;SDS011;67726;45.636;11.752;2024-02-28T05:11:15;8.50;;;2.45;;
78053;SDS011;67726;45.636;11.752;2024-02-28T05:13:41;5.47;;;2.50;;
78053;SDS011;67726;45.636;11.752;2024-02-28T05:16:14;5.95;;;2.15;;
78053;SDS011;67726;45.636;11.752;2024-02-28T05:18:40;6.40;;;1.83;;
78053;SDS011;67726;45.636;11.752;2024-02-28T05:21:07;4.50;;;1.77;;
78053;SDS011;67726;45.636;11.752;2024-02-28T05:23:32;6.13;;;2.07;;
78053;SDS011;67726;45.636;11.752;2024-02-28T05:25:59;4.63;;;2.00;;
78053;SDS011;67726;45.636;11.752;2024-02-28T05:28:28;5.32;;;1.70;;
78053;SDS011;67726;45.636;11.752;2024-02-28T05:30:55;3.80;;;1.70;;
78053;SDS011;67726;45.636;11.752;2024-02-28T05:33:21;4.43;;;1.73;;
78053;SDS011;67726;45.636;11.752;2024-02-28T05:35:47;3.90;;;1.40;;
78053;SDS011;67726;45.636;11.752;2024-02-28T05:38:12;3.85;;;1.70;;
78053;SDS011;67726;45.636;11.752;2024-02-28T05:40:38;5.13;;;1.80;;
78053;SDS011;67726;45.636;11.752;2024-02-28T05:43:04;4.80;;;2.53;;
78053;SDS011;67726;45.636;11.752;2024-02-28T05:45:29;7.00;;;2.60;;
78053;SDS011;67726;45.636;11.752;2024-02-28T05:47:55;5.35;;;2.10;;
78053;SDS011;67726;45.636;11.752;2024-02-28T05:50:21;4.50;;;2.00;;
78053;SDS011;67726;45.636;11.752;2024-02-28T05:52:46;4.82;;;1.95;;
78053;SDS011;67726;45.636;11.752;2024-02-28T05:55:12;7.60;;;2.70;;
78053;SDS011;67726;45.636;11.752;2024-02-28T05:57:38;7.80;;;3.15;;
78053;SDS011;67726;45.636;11.752;2024-02-28T06:00:04;8.90;;;3.67;;
78053;SDS011;67726;45.636;11.752;2024-02-28T06:02:35;8.43;;;3.93;;
78053;SDS011;67726;45.636;11.752;2024-02-28T06:05:02;9.60;;;4.38;;
78053;SDS011;67726;45.636;11.752;2024-02-28T06:07:28;8.30;;;4.53;;
78053;SDS011;67726;45.636;11.752;2024-02-28T06:09:53;7.10;;;3.10;;
78053;SDS011;67726;45.636;11.752;2024-02-28T06:12:19;5.38;;;2.35;;
78053;SDS011;67726;45.636;11.752;2024-02-28T06:14:45;4.10;;;1.90;;
78053;SDS011;67726;45.636;11.752;2024-02-28T06:17:10;7.43;;;2.40;;
78053;SDS011;67726;45.636;11.752;2024-02-28T06:19:36;6.67;;;2.30;;
78053;SDS011;67726;45.636;11.752;2024-02-28T06:22:02;3.75;;;1.45;;
78053;SDS011;67726;45.636;11.752;2024-02-28T06:24:28;4.53;;;1.77;;
78053;SDS011;67726;45.636;11.752;2024-02-28T06:26:53;3.67;;;1.88;;
78053;SDS011;67726;45.636;11.752;2024-02-28T06:29:19;4.77;;;1.93;;
78053;SDS011;67726;45.636;11.752;2024-02-28T06:31:49;5.43;;;1.98;;
78053;SDS011;67726;45.636;11.752;2024-02-28T06:34:19;4.18;;;1.88;;
78053;SDS011;67726;45.636;11.752;2024-02-28T06:37:01;4.77;;;1.93;;
78053;SDS011;67726;45.636;11.752;2024-02-28T06:39:27;4.15;;;2.10;;
78053;SDS011;67726;45.636;11.752;2024-02-28T06:41:52;4.07;;;2.00;;
78053;SDS011;67726;45.636;11.752;2024-02-28T06:44:18;4.78;;;2.00;;
78053;SDS011;67726;45.636;11.752;2024-02-28T06:46:44;4.20;;;2.00;;
78053;SDS011;67726;45.636;11.752;2024-02-28T06:49:09;5.63;;;2.53;;
78053;SDS011;67726;45.636;11.752;2024-02-28T06:51:35;5.67;;;2.90;;
78053;SDS011;67726;45.636;11.752;2024-02-28T06:54:01;5.60;;;2.85;;
78053;SDS011;67726;45.636;11.752;2024-02-28T06:56:27;7.18;;;2.70;;
78053;SDS011;67726;45.636;11.752;2024-02-28T06:58:52;6.53;;;3.00;;
78053;SDS011;67726;45.636;11.752;2024-02-28T07:01:18;8.50;;;4.97;;
78053;SDS011;67726;45.636;11.752;2024-02-28T07:03:44;17.23;;;7.55;;
78053;SDS011;67726;45.636;11.752;2024-02-28T07:06:11;15.73;;;6.60;;
78053;SDS011;67726;45.636;11.752;2024-02-28T07:08:36;10.65;;;5.80;;
78053;SDS011;67726;45.636;11.752;2024-02-28T07:11:02;6.77;;;3.80;;
78053;SDS011;67726;45.636;11.752;2024-02-28T07:13:28;7.95;;;3.63;;
78053;SDS011;67726;45.636;11.752;2024-02-28T07:15:57;6.68;;;4.00;;
78053;SDS011;67726;45.636;11.752;2024-02-28T07:18:23;8.15;;;3.92;;
78053;SDS011;67726;45.636;11.752;2024-02-28T07:20:53;8.33;;;4.30;;
78053;SDS011;67726;45.636;11.752;2024-02-28T07:23:34;8.25;;;4.03;;
78053;SDS011;67726;45.636;11.752;2024-02-28T07:26:03;8.18;;;3.92;;
78053;SDS011;67726;45.636;11.752;2024-02-28T07:30:59;7.35;;;4.30;;
78053;SDS011;67726;45.636;11.752;2024-02-28T07:33:25;10.87;;;4.77;;
78053;SDS011;67726;45.636;11.752;2024-02-28T07:35:52;11.80;;;5.97;;
78053;SDS011;67726;45.636;11.752;2024-02-28T07:38:17;13.10;;;6.72;;
78053;SDS011;67726;45.636;11.752;2024-02-28T07:40:47;14.27;;;6.17;;
78053;SDS011;67726;45.636;11.752;2024-02-28T07:43:13;9.18;;;4.47;;
78053;SDS011;67726;45.636;11.752;2024-02-28T07:45:39;7.40;;;3.20;;
78053;SDS011;67726;45.636;11.752;2024-02-28T07:48:04;8.25;;;3.47;;
78053;SDS011;67726;45.636;11.752;2024-02-28T07:50:31;8.37;;;4.40;;
78053;SDS011;67726;45.636;11.752;2024-02-28T07:52:56;14.18;;;4.70;;
78053;SDS011;67726;45.636;11.752;2024-02-28T07:55:22;13.30;;;4.90;;
78053;SDS011;67726;45.636;11.752;2024-02-28T07:57:51;7.78;;;3.45;;
78053;SDS011;67726;45.636;11.752;2024-02-28T08:00:18;7.88;;;3.90;;
78053;SDS011;67726;45.636;11.752;2024-02-28T08:02:45;9.75;;;3.92;;
78053;SDS011;67726;45.636;11.752;2024-02-28T08:05:10;10.70;;;4.00;;
78053;SDS011;67726;45.636;11.752;2024-02-28T08:07:36;7.85;;;3.90;;
78053;SDS011;67726;45.636;11.752;2024-02-28T08:10:02;7.97;;;2.97;;
78053;SDS011;67726;45.636;11.752;2024-02-28T08:12:30;13.75;;;4.32;;
78053;SDS011;67726;45.636;11.752;2024-02-28T08:14:57;8.23;;;4.07;;
78053;SDS011;67726;45.636;11.752;2024-02-28T08:17:23;10.13;;;4.90;;
78053;SDS011;67726;45.636;11.752;2024-02-28T08:19:48;9.30;;;4.50;;
78053;SDS011;67726;45.636;11.752;2024-02-28T08:22:14;8.60;;;4.47;;
78053;SDS011;67726;45.636;11.752;2024-02-28T08:24:40;7.18;;;3.83;;
78053;SDS011;67726;45.636;11.752;2024-02-28T08:27:05;6.93;;;3.57;;
78053;SDS011;67726;45.636;11.752;2024-02-28T08:29:31;7.85;;;3.83;;
78053;SDS011;67726;45.636;11.752;2024-02-28T08:31:57;7.65;;;3.85;;
78053;SDS011;67726;45.636;11.752;2024-02-28T08:34:26;7.73;;;3.80;;
78053;SDS011;67726;45.636;11.752;2024-02-28T08:39:20;6.75;;;3.05;;
78053;SDS011;67726;45.636;11.752;2024-02-28T08:41:45;7.37;;;3.30;;
78053;SDS011;67726;45.636;11.752;2024-02-28T08:44:11;7.88;;;3.42;;
78053;SDS011;67726;45.636;11.752;2024-02-28T08:46:37;8.87;;;3.83;;
78053;SDS011;67726;45.636;11.752;2024-02-28T08:49:02;7.70;;;4.00;;
78053;SDS011;67726;45.636;11.752;2024-02-28T08:51:28;6.13;;;3.40;;
78053;SDS011;67726;45.636;11.752;2024-02-28T08:53:54;8.17;;;3.60;;
78053;SDS011;67726;45.636;11.752;2024-02-28T08:56:35;7.22;;;3.33;;
78053;SDS011;67726;45.636;11.752;2024-02-28T09:01:36;6.80;;;3.00;;
78053;SDS011;67726;45.636;11.752;2024-02-28T09:04:02;6.90;;;2.93;;
78053;SDS011;67726;45.636;11.752;2024-02-28T09:06:28;5.82;;;3.00;;
78053;SDS011;67726;45.636;11.752;2024-02-28T09:08:54;5.63;;;3.03;;
78053;SDS011;67726;45.636;11.752;2024-02-28T09:11:20;6.05;;;2.70;;
78053;SDS011;67726;45.636;11.752;2024-02-28T09:13:45;8.10;;;3.50;;
78053;SDS011;67726;45.636;11.752;2024-02-28T09:16:11;8.63;;;4.00;;
78053;SDS011;67726;45.636;11.752;2024-02-28T09:18:36;6.27;;;3.40;;
78053;SDS011;67726;45.636;11.752;2024-02-28T09:21:03;5.90;;;3.30;;
78053;SDS011;67726;45.636;11.752;2024-02-28T09:23:29;8.37;;;4.00;;
78053;SDS011;67726;45.636;11.752;2024-02-28T09:25:55;7.57;;;3.97;;
78053;SDS011;67726;45.636;11.752;2024-02-28T09:28:22;9.98;;;4.70;;
78053;SDS011;67726;45.636;11.752;2024-02-28T09:30:48;9.73;;;5.00;;
78053;SDS011;67726;45.636;11.752;2024-02-28T09:33:15;6.93;;;3.23;;
78053;SDS011;67726;45.636;11.752;2024-02-28T09:35:42;5.30;;;2.70;;
78053;SDS011;67726;45.636;11.752;2024-02-28T09:38:08;4.30;;;1.98;;
78053;SDS011;67726;45.636;11.752;2024-02-28T09:40:34;4.47;;;2.00;;
78053;SDS011;67726;45.636;11.752;2024-02-28T09:43:02;4.53;;;1.90;;
78053;SDS011;67726;45.636;11.752;2024-02-28T09:45:29;4.33;;;1.70;;
78053;SDS011;67726;45.636;11.752;2024-02-28T09:47:56;5.47;;;2.20;;
78053;SDS011;67726;45.636;11.752;2024-02-28T09:50:25;5.82;;;2.10;;
78053;SDS011;67726;45.636;11.752;2024-02-28T09:52:52;5.30;;;2.28;;
78053;SDS011;67726;45.636;11.752;2024-02-28T09:55:19;5.63;;;2.60;;
78053;SDS011;67726;45.636;11.752;2024-02-28T09:57:45;6.40;;;2.90;;
78053;SDS011;67726;45.636;11.752;2024-02-28T10:00:14;7.20;;;3.25;;
78053;SDS011;67726;45.636;11.752;2024-02-28T10:02:43;7.50;;;3.22;;
78053;SDS011;67726;45.636;11.752;2024-02-28T10:05:11;6.28;;;2.70;;
78053;SDS011;67726;45.636;11.752;2024-02-28T10:07:37;8.20;;;3.10;;
78053;SDS011;67726;45.636;11.752;2024-02-28T10:10:06;6.13;;;2.70;;
78053;SDS011;67726;45.636;11.752;2024-02-28T10:12:33;11.30;;;4.78;;
78053;SDS011;67726;45.636;11.752;2024-02-28T10:15:02;7.80;;;3.80;;
78053;SDS011;67726;45.636;11.752;2024-02-28T10:17:28;10.97;;;5.23;;
78053;SDS011;67726;45.636;11.752;2024-02-28T10:19:54;8.80;;;3.97;;
78053;SDS011;67726;45.636;11.752;2024-02-28T10:22:19;9.37;;;3.90;;
78053;SDS011;67726;45.636;11.752;2024-02-28T10:24:47;8.23;;;3.80;;
78053;SDS011;67726;45.636;11.752;2024-02-28T10:27:15;6.43;;;3.28;;
78053;SDS011;67726;45.636;11.752;2024-02-28T10:29:42;9.05;;;3.67;;
78053;SDS011;67726;45.636;11.752;2024-02-28T10:32:09;6.67;;;3.60;;
78053;SDS011;67726;45.636;11.752;2024-02-28T10:34:35;7.28;;;3.47;;
78053;SDS011;67726;45.636;11.752;2024-02-28T10:37:03;8.45;;;3.75;;
78053;SDS011;67726;45.636;11.752;2024-02-28T10:39:30;6.75;;;3.22;;
78053;SDS011;67726;45.636;11.752;2024-02-28T10:41:57;6.15;;;3.20;;
78053;SDS011;67726;45.636;11.752;2024-02-28T10:44:24;8.40;;;3.60;;
78053;SDS011;67726;45.636;11.752;2024-02-28T10:46:52;6.15;;;3.33;;
78053;SDS011;67726;45.636;11.752;2024-02-28T10:51:56;8.02;;;3.10;;
78053;SDS011;67726;45.636;11.752;2024-02-28T10:54:24;7.65;;;3.75;;
78053;SDS011;67726;45.636;11.752;2024-02-28T10:56:53;10.50;;;4.43;;
78053;SDS011;67726;45.636;11.752;2024-02-28T10:59:19;7.40;;;3.78;;
78053;SDS011;67726;45.636;11.752;2024-02-28T11:01:48;8.40;;;3.60;;
78053;SDS011;67726;45.636;11.752;2024-02-28T11:04:15;7.55;;;2.95;;
78053;SDS011;67726;45.636;11.752;2024-02-28T11:06:53;5.60;;;2.90;;
78053;SDS011;67726;45.636;11.752;2024-02-28T11:09:21;5.57;;;2.50;;
78053;SDS011;67726;45.636;11.752;2024-02-28T11:11:51;7.03;;;2.88;;
78053;SDS011;67726;45.636;11.752;2024-02-28T11:14:17;9.73;;;3.47;;
78053;SDS011;67726;45.636;11.752;2024-02-28T11:16:47;6.00;;;3.20;;
78053;SDS011;67726;45.636;11.752;2024-02-28T11:19:20;7.60;;;2.97;;
78053;SDS011;67726;45.636;11.752;2024-02-28T11:21:55;6.95;;;2.90;;
78053;SDS011;67726;45.636;11.752;2024-02-28T11:24:24;8.90;;;4.45;;
78053;SDS011;67726;45.636;11.752;2024-02-28T11:26:54;10.32;;;4.47;;
78053;SDS011;67726;45.636;11.752;2024-02-28T11:29:27;8.77;;;4.13;;
78053;SDS011;67726;45.636;11.752;2024-02-28T11:31:56;8.47;;;3.67;;
78053;SDS011;67726;45.636;11.752;2024-02-28T11:34:22;9.77;;;3.75;;
78053;SDS011;67726;45.636;11.752;2024-02-28T11:36:48;8.25;;;4.05;;
78053;SDS011;67726;45.636;11.752;2024-02-28T11:39:14;7.10;;;3.80;;
78053;SDS011;67726;45.636;11.752;2024-02-28T11:41:40;9.80;;;4.07;;
78053;SDS011;67726;45.636;11.752;2024-02-28T11:44:06;11.05;;;4.07;;
78053;SDS011;67726;45.636;11.752;2024-02-28T11:46:32;9.43;;;4.50;;
78053;SDS011;67726;45.636;11.752;2024-02-28T11:48:58;9.87;;;4.27;;
78053;SDS011;67726;45.636;11.752;2024-02-28T11:51:26;8.80;;;3.78;;
78053;SDS011;67726;45.636;11.752;2024-02-28T11:53:51;6.63;;;3.10;;
78053;SDS011;67726;45.636;11.752;2024-02-28T11:56:17;9.17;;;3.53;;
78053;SDS011;67726;45.636;11.752;2024-02-28T11:58:49;7.22;;;3.00;;
78053;SDS011;67726;45.636;11.752;2024-02-28T12:01:16;6.30;;;3.53;;
78053;SDS011;67726;45.636;11.752;2024-02-28T12:03:44;7.93;;;4.10;;
78053;SDS011;67726;45.636;11.752;2024-02-28T12:06:11;8.80;;;3.13;;
78053;SDS011;67726;45.636;11.752;2024-02-28T12:08:37;7.57;;;2.83;;
78053;SDS011;67726;45.636;11.752;2024-02-28T12:11:06;5.87;;;2.67;;
78053;SDS011;67726;45.636;11.752;2024-02-28T12:13:33;7.63;;;3.10;;
78053;SDS011;67726;45.636;11.752;2024-02-28T12:16:00;6.57;;;2.70;;
78053;SDS011;67726;45.636;11.752;2024-02-28T12:18:26;8.30;;;2.67;;
78053;SDS011;67726;45.636;11.752;2024-02-28T12:20:53;6.27;;;2.67;;
78053;SDS011;67726;45.636;11.752;2024-02-28T12:23:19;6.43;;;2.97;;
78053;SDS011;67726;45.636;11.752;2024-02-28T12:25:45;7.85;;;2.72;;
78053;SDS011;67726;45.636;11.752;2024-02-28T12:31:18;5.28;;;2.10;;
78053;SDS011;67726;45.636;11.752;2024-02-28T12:33:46;5.45;;;2.50;;
78053;SDS011;67726;45.636;11.752;2024-02-28T12:36:12;5.80;;;2.45;;
78053;SDS011;67726;45.636;11.752;2024-02-28T12:38:39;4.73;;;2.20;;
78053;SDS011;67726;45.636;11.752;2024-02-28T12:41:06;6.00;;;2.40;;
78053;SDS011;67726;45.636;11.752;2024-02-28T12:43:31;6.90;;;2.72;;
78053;SDS011;67726;45.636;11.752;2024-02-28T12:46:00;8.60;;;2.67;;
78053;SDS011;67726;45.636;11.752;2024-02-28T12:48:26;9.63;;;3.20;;
78053;SDS011;67726;45.636;11.752;2024-02-28T12:50:52;8.67;;;4.00;;
78053;SDS011;67726;45.636;11.752;2024-02-28T12:53:18;7.95;;;2.97;;
78053;SDS011;67726;45.636;11.752;2024-02-28T12:55:44;8.90;;;3.30;;
78053;SDS011;67726;45.636;11.752;2024-02-28T12:58:10;7.30;;;3.55;;
78053;SDS011;67726;45.636;11.752;2024-02-28T13:00:36;8.70;;;3.67;;
78053;SDS011;67726;45.636;11.752;2024-02-28T13:03:17;7.80;;;4.07;;
78053;SDS011;67726;45.636;11.752;2024-02-28T13:05:43;7.40;;;3.40;;
78053;SDS011;67726;45.636;11.752;2024-02-28T13:08:09;8.00;;;3.88;;
78053;SDS011;67726;45.636;11.752;2024-02-28T13:10:34;8.13;;;4.00;;
78053;SDS011;67726;45.636;11.752;2024-02-28T13:13:04;9.70;;;4.35;;
78053;SDS011;67726;45.636;11.752;2024-02-28T13:15:31;8.60;;;4.47;;
78053;SDS011;67726;45.636;11.752;2024-02-28T13:17:57;8.82;;;4.40;;
78053;SDS011;67726;45.636;11.752;2024-02-28T13:20:22;8.50;;;4.00;;
78053;SDS011;67726;45.636;11.752;2024-02-28T13:22:48;7.45;;;3.13;;
78053;SDS011;67726;45.636;11.752;2024-02-28T13:25:14;6.32;;;3.28;;
78053;SDS011;67726;45.636;11.752;2024-02-28T13:27:40;8.00;;;3.50;;
78053;SDS011;67726;45.636;11.752;2024-02-28T13:30:06;7.65;;;3.13;;
78053;SDS011;67726;45.636;11.752;2024-02-28T13:32:32;6.38;;;3.10;;
78053;SDS011;67726;45.636;11.752;2024-02-28T13:34:58;7.17;;;3.50;;
78053;SDS011;67726;45.636;11.752;2024-02-28T13:37:25;6.35;;;3.00;;
78053;SDS011;67726;45.636;11.752;2024-02-28T13:39:50;7.22;;;3.38;;
78053;SDS011;67726;45.636;11.752;2024-02-28T13:42:17;6.30;;;2.90;;
78053;SDS011;67726;45.636;11.752;2024-02-28T13:44:45;7.03;;;3.47;;
78053;SDS011;67726;45.636;11.752;2024-02-28T13:47:11;6.50;;;3.20;;
78053;SDS011;67726;45.636;11.752;2024-02-28T13:49:40;6.35;;;2.53;;
78053;SDS011;67726;45.636;11.752;2024-02-28T13:52:05;7.80;;;2.70;;
78053;SDS011;67726;45.636;11.752;2024-02-28T13:54:31;6.88;;;2.63;;
78053;SDS011;67726;45.636;11.752;2024-02-28T13:56:57;6.27;;;2.80;;
78053;SDS011;67726;45.636;11.752;2024-02-28T13:59:23;5.30;;;2.50;;
78053;SDS011;67726;45.636;11.752;2024-02-28T14:01:49;5.65;;;2.20;;
78053;SDS011;67726;45.636;11.752;2024-02-28T14:04:15;5.60;;;2.40;;
78053;SDS011;67726;45.636;11.752;2024-02-28T14:06:41;5.90;;;2.83;;
78053;SDS011;67726;45.636;11.752;2024-02-28T14:09:07;6.30;;;3.20;;
78053;SDS011;67726;45.636;11.752;2024-02-28T14:14:23;6.70;;;2.60;;
78053;SDS011;67726;45.636;11.752;2024-02-28T14:16:49;6.50;;;2.55;;
78053;SDS011;67726;45.636;11.752;2024-02-28T14:19:15;6.37;;;2.90;;
78053;SDS011;67726;45.636;11.752;2024-02-28T14:21:40;5.70;;;2.70;;
78053;SDS011;67726;45.636;11.752;2024-02-28T14:24:06;10.75;;;2.58;;
78053;SDS011;67726;45.636;11.752;2024-02-28T14:38:32;5.60;;;2.60;;
78053;SDS011;67726;45.636;11.752;2024-02-28T14:40:57;6.73;;;2.37;;
78053;SDS011;67726;45.636;11.752;2024-02-28T14:43:23;9.75;;;2.78;;
78053;SDS011;67726;45.636;11.752;2024-02-28T14:45:49;5.53;;;2.17;;
78053;SDS011;67726;45.636;11.752;2024-02-28T14:48:15;7.00;;;2.58;;
78053;SDS011;67726;45.636;11.752;2024-02-28T14:50:40;6.00;;;2.63;;
78053;SDS011;67726;45.636;11.752;2024-02-28T14:53:07;7.88;;;3.13;;
78053;SDS011;67726;45.636;11.752;2024-02-28T14:55:33;6.75;;;2.67;;
78053;SDS011;67726;45.636;11.752;2024-02-28T14:57:59;7.03;;;2.40;;
78053;SDS011;67726;45.636;11.752;2024-02-28T15:00:25;9.77;;;2.85;;
78053;SDS011;67726;45.636;11.752;2024-02-28T15:02:51;5.85;;;2.53;;
78053;SDS011;67726;45.636;11.752;2024-02-28T15:05:18;7.20;;;2.43;;
78053;SDS011;67726;45.636;11.752;2024-02-28T15:07:44;10.73;;;3.05;;
78053;SDS011;67726;45.636;11.752;2024-02-28T15:10:10;10.43;;;3.20;;